sensor_id;sensor_type;location;lat;lon;timestamp;temperature;humidity
40151;DHT22;25866;52.420;10.640;2024-03-02T00:00:38;7.80;99.90
40151;DHT22;25866;52.420;10.640;2024-03-02T00:03:07;7.80;99.90
40151;DHT22;25866;52.420;10.640;2024-03-02T00:05:35;7.80;99.90
40151;DHT22;25866;52.420;10.640;2024-03-02T00:08:01;7.80;99.90
40151;DHT22;25866;52.420;10.640;2024-03-02T00:10:41;7.80;99.90
40151;DHT22;25866;52.420;10.640;2024-03-02T00:13:08;7.80;99.90
40151;DHT22;25866;52.420;10.640;2024-03-02T00:15:53;7.80;99.90
40151;DHT22;25866;52.420;10.640;2024-03-02T00:18:34;7.80;99.90
40151;DHT22;25866;52.420;10.640;2024-03-02T00:21:00;7.80;99.90
40151;DHT22;25866;52.420;10.640;2024-03-02T00:23:30;7.80;99.90
40151;DHT22;25866;52.420;10.640;2024-03-02T00:25:56;7.80;99.90
40151;DHT22;25866;52.420;10.640;2024-03-02T00:28:25;7.80;99.90
40151;DHT22;25866;52.420;10.640;2024-03-02T00:31:12;7.80;99.90
40151;DHT22;25866;52.420;10.640;2024-03-02T00:33:44;7.80;99.90
40151;DHT22;25866;52.420;10.640;2024-03-02T00:36:12;7.80;99.90
40151;DHT22;25866;52.420;10.640;2024-03-02T00:38:46;7.70;99.90
40151;DHT22;25866;52.420;10.640;2024-03-02T00:41:33;7.80;99.90
40151;DHT22;25866;52.420;10.640;2024-03-02T00:44:06;7.70;99.90
40151;DHT22;25866;52.420;10.640;2024-03-02T00:46:34;7.70;99.90
40151;DHT22;25866;52.420;10.640;2024-03-02T00:49:03;7.70;99.90
40151;DHT22;25866;52.420;10.640;2024-03-02T00:51:39;7.70;99.90
40151;DHT22;25866;52.420;10.640;2024-03-02T00:54:07;7.60;99.90
40151;DHT22;25866;52.420;10.640;2024-03-02T00:56:34;7.60;99.90
40151;DHT22;25866;52.420;10.640;2024-03-02T00:59:00;7.60;99.90
40151;DHT22;25866;52.420;10.640;2024-03-02T01:01:27;7.50;99.90
40151;DHT22;25866;52.420;10.640;2024-03-02T01:03:53;7.50;99.90
40151;DHT22;25866;52.420;10.640;2024-03-02T01:06:19;7.50;99.90
40151;DHT22;25866;52.420;10.640;2024-03-02T01:08:45;7.50;99.90
40151;DHT22;25866;52.420;10.640;2024-03-02T01:11:12;7.50;99.90
40151;DHT22;25866;52.420;10.640;2024-03-02T01:13:37;7.50;99.90
40151;DHT22;25866;52.420;10.640;2024-03-02T01:16:03;7.50;99.90
40151;DHT22;25866;52.420;10.640;2024-03-02T01:18:29;7.60;99.90
40151;DHT22;25866;52.420;10.640;2024-03-02T01:21:03;7.60;99.90
40151;DHT22;25866;52.420;10.640;2024-03-02T01:23:29;7.60;99.90
40151;DHT22;25866;52.420;10.640;2024-03-02T01:25:55;7.60;99.90
40151;DHT22;25866;52.420;10.640;2024-03-02T01:28:21;7.60;99.90
40151;DHT22;25866;52.420;10.640;2024-03-02T01:30:48;7.50;99.90
40151;DHT22;25866;52.420;10.640;2024-03-02T01:33:15;7.50;99.90
40151;DHT22;25866;52.420;10.640;2024-03-02T01:35:41;7.50;99.90
40151;DHT22;25866;52.420;10.640;2024-03-02T01:38:07;7.40;99.90
40151;DHT22;25866;52.420;10.640;2024-03-02T01:40:38;7.40;99.90
40151;DHT22;25866;52.420;10.640;2024-03-02T01:43:07;7.40;99.90
40151;DHT22;25866;52.420;10.640;2024-03-02T01:45:34;7.50;99.90
40151;DHT22;25866;52.420;10.640;2024-03-02T01:48:01;7.50;99.90
40151;DHT22;25866;52.420;10.640;2024-03-02T01:50:29;7.50;99.90
40151;DHT22;25866;52.420;10.640;2024-03-02T01:52:56;7.50;99.90
40151;DHT22;25866;52.420;10.640;2024-03-02T01:55:22;7.40;99.90
40151;DHT22;25866;52.420;10.640;2024-03-02T01:57:49;7.40;99.90
40151;DHT22;25866;52.420;10.640;2024-03-02T02:00:16;7.40;99.90
40151;DHT22;25866;52.420;10.640;2024-03-02T02:02:48;7.40;99.90
40151;DHT22;25866;52.420;10.640;2024-03-02T02:05:14;7.40;99.90
40151;DHT22;25866;52.420;10.640;2024-03-02T02:07:41;7.40;99.90
40151;DHT22;25866;52.420;10.640;2024-03-02T02:10:09;7.40;99.90
40151;DHT22;25866;52.420;10.640;2024-03-02T02:12:36;7.40;99.90
40151;DHT22;25866;52.420;10.640;2024-03-02T02:15:02;7.40;99.90
40151;DHT22;25866;52.420;10.640;2024-03-02T02:17:28;7.40;99.90
40151;DHT22;25866;52.420;10.640;2024-03-02T02:19:54;7.40;99.90
40151;DHT22;25866;52.420;10.640;2024-03-02T02:22:21;7.40;99.90
40151;DHT22;25866;52.420;10.640;2024-03-02T02:24:46;7.40;99.90
40151;DHT22;25866;52.420;10.640;2024-03-02T02:27:12;7.40;99.90
40151;DHT22;25866;52.420;10.640;2024-03-02T02:29:41;7.40;99.90
40151;DHT22;25866;52.420;10.640;2024-03-02T02:32:07;7.40;99.90
40151;DHT22;25866;52.420;10.640;2024-03-02T02:34:33;7.40;99.90
40151;DHT22;25866;52.420;10.640;2024-03-02T02:36:59;7.40;99.90
40151;DHT22;25866;52.420;10.640;2024-03-02T02:39:25;7.30;99.90
40151;DHT22;25866;52.420;10.640;2024-03-02T02:41:51;7.30;99.90
40151;DHT22;25866;52.420;10.640;2024-03-02T02:44:17;7.30;99.90
40151;DHT22;25866;52.420;10.640;2024-03-02T02:46:43;7.40;99.90
40151;DHT22;25866;52.420;10.640;2024-03-02T02:49:08;7.30;99.90
40151;DHT22;25866;52.420;10.640;2024-03-02T02:51:34;7.40;99.90
40151;DHT22;25866;52.420;10.640;2024-03-02T02:54:00;7.30;99.90
40151;DHT22;25866;52.420;10.640;2024-03-02T02:56:26;7.30;99.90
40151;DHT22;25866;52.420;10.640;2024-03-02T02:58:52;7.30;99.90
40151;DHT22;25866;52.420;10.640;2024-03-02T03:01:17;7.30;99.90
40151;DHT22;25866;52.420;10.640;2024-03-02T03:03:44;7.30;99.90
40151;DHT22;25866;52.420;10.640;2024-03-02T03:06:10;7.30;99.90
40151;DHT22;25866;52.420;10.640;2024-03-02T03:08:36;7.30;99.90
40151;DHT22;25866;52.420;10.640;2024-03-02T03:11:02;7.30;99.90
40151;DHT22;25866;52.420;10.640;2024-03-02T03:13:35;7.30;99.90
40151;DHT22;25866;52.420;10.640;2024-03-02T03:16:00;7.30;99.90
40151;DHT22;25866;52.420;10.640;2024-03-02T03:18:26;7.30;99.90
40151;DHT22;25866;52.420;10.640;2024-03-02T03:20:52;7.30;99.90
40151;DHT22;25866;52.420;10.640;2024-03-02T03:23:20;7.30;99.90
40151;DHT22;25866;52.420;10.640;2024-03-02T03:25:46;7.30;99.90
40151;DHT22;25866;52.420;10.640;2024-03-02T03:28:12;7.30;99.90
40151;DHT22;25866;52.420;10.640;2024-03-02T03:30:38;7.30;99.90
40151;DHT22;25866;52.420;10.640;2024-03-02T03:33:21;7.30;99.90
40151;DHT22;25866;52.420;10.640;2024-03-02T03:35:47;7.30;99.90
40151;DHT22;25866;52.420;10.640;2024-03-02T03:38:13;7.30;99.90
40151;DHT22;25866;52.420;10.640;2024-03-02T03:40:39;7.30;99.90
40151;DHT22;25866;52.420;10.640;2024-03-02T03:43:06;7.30;99.90
40151;DHT22;25866;52.420;10.640;2024-03-02T03:45:32;7.30;99.90
40151;DHT22;25866;52.420;10.640;2024-03-02T03:47:58;7.30;99.90
40151;DHT22;25866;52.420;10.640;2024-03-02T03:50:24;7.30;99.90
40151;DHT22;25866;52.420;10.640;2024-03-02T03:52:52;7.30;99.90
40151;DHT22;25866;52.420;10.640;2024-03-02T03:57:49;7.30;99.90
40151;DHT22;25866;52.420;10.640;2024-03-02T04:00:15;7.30;99.90
40151;DHT22;25866;52.420;10.640;2024-03-02T04:02:41;7.30;99.90
40151;DHT22;25866;52.420;10.640;2024-03-02T04:05:07;7.30;99.90
40151;DHT22;25866;52.420;10.640;2024-03-02T04:07:39;7.30;99.90
40151;DHT22;25866;52.420;10.640;2024-03-02T04:10:07;7.30;99.90
40151;DHT22;25866;52.420;10.640;2024-03-02T04:12:34;7.30;99.90
40151;DHT22;25866;52.420;10.640;2024-03-02T04:15:01;7.30;99.90
40151;DHT22;25866;52.420;10.640;2024-03-02T04:17:27;7.40;99.90
40151;DHT22;25866;52.420;10.640;2024-03-02T04:19:53;7.40;99.90
40151;DHT22;25866;52.420;10.640;2024-03-02T04:22:19;7.30;99.90
40151;DHT22;25866;52.420;10.640;2024-03-02T04:24:44;7.40;99.90
40151;DHT22;25866;52.420;10.640;2024-03-02T04:27:10;7.40;99.90
40151;DHT22;25866;52.420;10.640;2024-03-02T04:29:36;7.40;99.90
40151;DHT22;25866;52.420;10.640;2024-03-02T04:32:01;7.40;99.90
40151;DHT22;25866;52.420;10.640;2024-03-02T04:34:27;7.30;99.90
40151;DHT22;25866;52.420;10.640;2024-03-02T04:36:53;7.30;99.90
40151;DHT22;25866;52.420;10.640;2024-03-02T04:39:19;7.30;99.90
40151;DHT22;25866;52.420;10.640;2024-03-02T04:41:44;7.30;99.90
40151;DHT22;25866;52.420;10.640;2024-03-02T04:44:11;7.20;99.90
40151;DHT22;25866;52.420;10.640;2024-03-02T04:46:37;7.20;99.90
40151;DHT22;25866;52.420;10.640;2024-03-02T04:49:02;7.20;99.90
40151;DHT22;25866;52.420;10.640;2024-03-02T04:51:28;7.20;99.90
40151;DHT22;25866;52.420;10.640;2024-03-02T04:53:54;7.10;99.90
40151;DHT22;25866;52.420;10.640;2024-03-02T04:56:20;7.10;99.90
40151;DHT22;25866;52.420;10.640;2024-03-02T04:59:05;7.10;99.90
40151;DHT22;25866;52.420;10.640;2024-03-02T05:01:31;7.10;99.90
40151;DHT22;25866;52.420;10.640;2024-03-02T05:03:58;7.10;99.90
40151;DHT22;25866;52.420;10.640;2024-03-02T05:06:24;7.10;99.90
40151;DHT22;25866;52.420;10.640;2024-03-02T05:08:50;7.00;99.90
40151;DHT22;25866;52.420;10.640;2024-03-02T05:11:15;7.00;99.90
40151;DHT22;25866;52.420;10.640;2024-03-02T05:14:10;7.00;99.90
40151;DHT22;25866;52.420;10.640;2024-03-02T05:16:36;7.00;99.90
40151;DHT22;25866;52.420;10.640;2024-03-02T05:19:04;7.00;99.90
40151;DHT22;25866;52.420;10.640;2024-03-02T05:21:32;7.00;99.90
40151;DHT22;25866;52.420;10.640;2024-03-02T05:23:59;7.00;99.90
40151;DHT22;25866;52.420;10.640;2024-03-02T05:26:25;6.90;99.90
40151;DHT22;25866;52.420;10.640;2024-03-02T05:28:51;6.90;99.90
40151;DHT22;25866;52.420;10.640;2024-03-02T05:31:17;6.90;99.90
40151;DHT22;25866;52.420;10.640;2024-03-02T05:33:43;6.90;99.90
40151;DHT22;25866;52.420;10.640;2024-03-02T05:36:09;6.80;99.90
40151;DHT22;25866;52.420;10.640;2024-03-02T05:38:35;6.80;99.90
40151;DHT22;25866;52.420;10.640;2024-03-02T05:41:01;6.80;99.90
40151;DHT22;25866;52.420;10.640;2024-03-02T05:43:27;6.80;99.90
40151;DHT22;25866;52.420;10.640;2024-03-02T05:45:53;6.80;99.90
40151;DHT22;25866;52.420;10.640;2024-03-02T05:48:18;6.70;99.90
40151;DHT22;25866;52.420;10.640;2024-03-02T05:50:44;6.70;99.90
40151;DHT22;25866;52.420;10.640;2024-03-02T05:53:10;6.80;99.90
40151;DHT22;25866;52.420;10.640;2024-03-02T05:55:36;6.80;99.90
40151;DHT22;25866;52.420;10.640;2024-03-02T05:58:01;6.70;99.90
40151;DHT22;25866;52.420;10.640;2024-03-02T06:00:46;6.60;99.90
40151;DHT22;25866;52.420;10.640;2024-03-02T06:03:11;6.70;99.90
40151;DHT22;25866;52.420;10.640;2024-03-02T06:05:37;6.60;99.90
40151;DHT22;25866;52.420;10.640;2024-03-02T06:08:03;6.60;99.90
40151;DHT22;25866;52.420;10.640;2024-03-02T06:10:29;6.60;99.90
40151;DHT22;25866;52.420;10.640;2024-03-02T06:12:55;6.60;99.90
40151;DHT22;25866;52.420;10.640;2024-03-02T06:15:20;6.50;99.90
40151;DHT22;25866;52.420;10.640;2024-03-02T06:17:46;6.50;99.90
40151;DHT22;25866;52.420;10.640;2024-03-02T06:20:12;6.50;99.90
40151;DHT22;25866;52.420;10.640;2024-03-02T06:22:38;6.50;99.90
40151;DHT22;25866;52.420;10.640;2024-03-02T06:25:04;6.50;99.90
40151;DHT22;25866;52.420;10.640;2024-03-02T06:27:30;6.50;99.90
40151;DHT22;25866;52.420;10.640;2024-03-02T06:29:55;6.50;99.90
40151;DHT22;25866;52.420;10.640;2024-03-02T06:32:21;6.60;99.90
40151;DHT22;25866;52.420;10.640;2024-03-02T06:34:48;6.60;99.90
40151;DHT22;25866;52.420;10.640;2024-03-02T06:37:14;6.60;99.90
40151;DHT22;25866;52.420;10.640;2024-03-02T06:39:41;6.60;99.90
40151;DHT22;25866;52.420;10.640;2024-03-02T06:42:07;6.60;99.90
40151;DHT22;25866;52.420;10.640;2024-03-02T06:44:33;6.70;99.90
40151;DHT22;25866;52.420;10.640;2024-03-02T06:46:59;6.70;99.90
40151;DHT22;25866;52.420;10.640;2024-03-02T06:49:25;6.80;99.90
40151;DHT22;25866;52.420;10.640;2024-03-02T06:51:50;6.80;99.90
40151;DHT22;25866;52.420;10.640;2024-03-02T06:54:16;6.80;99.90
40151;DHT22;25866;52.420;10.640;2024-03-02T06:56:42;6.80;99.90
40151;DHT22;25866;52.420;10.640;2024-03-02T06:59:07;6.80;99.90
40151;DHT22;25866;52.420;10.640;2024-03-02T07:01:33;6.90;99.90
40151;DHT22;25866;52.420;10.640;2024-03-02T07:04:00;6.90;99.90
40151;DHT22;25866;52.420;10.640;2024-03-02T07:06:25;6.90;99.90
40151;DHT22;25866;52.420;10.640;2024-03-02T07:08:51;7.00;99.90
40151;DHT22;25866;52.420;10.640;2024-03-02T07:11:17;7.00;99.90
40151;DHT22;25866;52.420;10.640;2024-03-02T07:13:43;7.00;99.90
40151;DHT22;25866;52.420;10.640;2024-03-02T07:16:08;7.10;99.90
40151;DHT22;25866;52.420;10.640;2024-03-02T07:18:37;7.10;99.90
40151;DHT22;25866;52.420;10.640;2024-03-02T07:21:07;7.10;99.90
40151;DHT22;25866;52.420;10.640;2024-03-02T07:23:34;7.00;99.90
40151;DHT22;25866;52.420;10.640;2024-03-02T07:26:00;7.10;99.90
40151;DHT22;25866;52.420;10.640;2024-03-02T07:28:27;7.10;99.90
40151;DHT22;25866;52.420;10.640;2024-03-02T07:31:00;7.10;99.90
40151;DHT22;25866;52.420;10.640;2024-03-02T07:33:26;7.10;99.90
40151;DHT22;25866;52.420;10.640;2024-03-02T07:35:53;7.10;99.90
40151;DHT22;25866;52.420;10.640;2024-03-02T07:38:19;7.10;99.90
40151;DHT22;25866;52.420;10.640;2024-03-02T07:40:45;7.20;99.90
40151;DHT22;25866;52.420;10.640;2024-03-02T07:43:11;7.20;99.90
40151;DHT22;25866;52.420;10.640;2024-03-02T07:45:37;7.20;99.90
40151;DHT22;25866;52.420;10.640;2024-03-02T07:48:02;7.20;99.90
40151;DHT22;25866;52.420;10.640;2024-03-02T07:50:31;7.20;99.90
40151;DHT22;25866;52.420;10.640;2024-03-02T07:52:59;7.20;99.90
40151;DHT22;25866;52.420;10.640;2024-03-02T07:55:25;7.20;99.90
40151;DHT22;25866;52.420;10.640;2024-03-02T07:57:51;7.30;99.90
40151;DHT22;25866;52.420;10.640;2024-03-02T08:00:17;7.30;99.90
40151;DHT22;25866;52.420;10.640;2024-03-02T08:02:43;7.40;99.90
40151;DHT22;25866;52.420;10.640;2024-03-02T08:05:09;7.40;99.90
40151;DHT22;25866;52.420;10.640;2024-03-02T08:07:35;7.50;99.90
40151;DHT22;25866;52.420;10.640;2024-03-02T08:10:01;7.50;99.90
40151;DHT22;25866;52.420;10.640;2024-03-02T08:12:26;7.60;99.90
40151;DHT22;25866;52.420;10.640;2024-03-02T08:14:52;7.70;99.90
40151;DHT22;25866;52.420;10.640;2024-03-02T08:17:18;7.70;99.90
40151;DHT22;25866;52.420;10.640;2024-03-02T08:19:44;7.80;99.90
40151;DHT22;25866;52.420;10.640;2024-03-02T08:22:10;7.80;99.90
40151;DHT22;25866;52.420;10.640;2024-03-02T08:24:36;7.90;99.90
40151;DHT22;25866;52.420;10.640;2024-03-02T08:27:02;8.00;99.90
40151;DHT22;25866;52.420;10.640;2024-03-02T08:29:28;8.00;99.90
40151;DHT22;25866;52.420;10.640;2024-03-02T08:31:54;8.10;99.90
40151;DHT22;25866;52.420;10.640;2024-03-02T08:34:20;8.30;99.90
40151;DHT22;25866;52.420;10.640;2024-03-02T08:36:46;8.40;99.90
40151;DHT22;25866;52.420;10.640;2024-03-02T08:39:12;8.50;99.90
40151;DHT22;25866;52.420;10.640;2024-03-02T08:41:42;8.60;99.90
40151;DHT22;25866;52.420;10.640;2024-03-02T08:44:09;8.80;99.90
40151;DHT22;25866;52.420;10.640;2024-03-02T08:46:35;8.90;99.90
40151;DHT22;25866;52.420;10.640;2024-03-02T08:49:02;8.90;99.90
40151;DHT22;25866;52.420;10.640;2024-03-02T08:51:28;9.10;99.90
40151;DHT22;25866;52.420;10.640;2024-03-02T08:53:54;9.20;99.90
40151;DHT22;25866;52.420;10.640;2024-03-02T08:56:20;9.30;99.90
40151;DHT22;25866;52.420;10.640;2024-03-02T08:58:47;9.50;99.90
40151;DHT22;25866;52.420;10.640;2024-03-02T09:01:13;9.60;99.90
40151;DHT22;25866;52.420;10.640;2024-03-02T09:03:38;9.70;99.90
40151;DHT22;25866;52.420;10.640;2024-03-02T09:06:04;9.80;99.90
40151;DHT22;25866;52.420;10.640;2024-03-02T09:08:30;9.80;99.90
40151;DHT22;25866;52.420;10.640;2024-03-02T09:10:56;9.90;99.90
40151;DHT22;25866;52.420;10.640;2024-03-02T09:13:22;9.90;99.90
40151;DHT22;25866;52.420;10.640;2024-03-02T09:15:48;9.90;99.90
40151;DHT22;25866;52.420;10.640;2024-03-02T09:18:14;10.00;99.90
40151;DHT22;25866;52.420;10.640;2024-03-02T09:20:40;10.10;99.90
40151;DHT22;25866;52.420;10.640;2024-03-02T09:23:06;10.10;99.90
40151;DHT22;25866;52.420;10.640;2024-03-02T09:25:32;10.20;99.90
40151;DHT22;25866;52.420;10.640;2024-03-02T09:27:57;10.20;99.90
40151;DHT22;25866;52.420;10.640;2024-03-02T09:30:23;10.30;99.90
40151;DHT22;25866;52.420;10.640;2024-03-02T09:32:49;10.30;99.90
40151;DHT22;25866;52.420;10.640;2024-03-02T09:35:15;10.40;99.90
40151;DHT22;25866;52.420;10.640;2024-03-02T09:37:40;10.50;99.90
40151;DHT22;25866;52.420;10.640;2024-03-02T09:40:07;10.50;99.90
40151;DHT22;25866;52.420;10.640;2024-03-02T09:42:32;10.60;99.90
40151;DHT22;25866;52.420;10.640;2024-03-02T09:44:58;10.60;99.90
40151;DHT22;25866;52.420;10.640;2024-03-02T09:47:24;10.70;99.90
40151;DHT22;25866;52.420;10.640;2024-03-02T09:49:50;10.70;99.90
40151;DHT22;25866;52.420;10.640;2024-03-02T09:52:16;10.80;99.90
40151;DHT22;25866;52.420;10.640;2024-03-02T09:54:42;10.80;99.90
40151;DHT22;25866;52.420;10.640;2024-03-02T09:57:08;10.90;99.90
40151;DHT22;25866;52.420;10.640;2024-03-02T09:59:34;10.90;99.90
40151;DHT22;25866;52.420;10.640;2024-03-02T10:02:02;11.00;99.90
40151;DHT22;25866;52.420;10.640;2024-03-02T10:04:29;11.00;99.90
40151;DHT22;25866;52.420;10.640;2024-03-02T10:07:15;11.00;99.90
40151;DHT22;25866;52.420;10.640;2024-03-02T10:09:48;11.00;99.90
40151;DHT22;25866;52.420;10.640;2024-03-02T10:12:17;11.00;99.90
40151;DHT22;25866;52.420;10.640;2024-03-02T10:14:43;11.10;99.90
40151;DHT22;25866;52.420;10.640;2024-03-02T10:17:11;11.10;99.90
40151;DHT22;25866;52.420;10.640;2024-03-02T10:19:38;11.10;99.90
40151;DHT22;25866;52.420;10.640;2024-03-02T10:22:08;11.20;99.90
40151;DHT22;25866;52.420;10.640;2024-03-02T10:24:41;11.20;99.90
40151;DHT22;25866;52.420;10.640;2024-03-02T10:27:26;11.20;99.90
40151;DHT22;25866;52.420;10.640;2024-03-02T10:29:52;11.30;99.90
40151;DHT22;25866;52.420;10.640;2024-03-02T10:32:22;11.30;99.90
40151;DHT22;25866;52.420;10.640;2024-03-02T10:34:48;11.40;99.90
40151;DHT22;25866;52.420;10.640;2024-03-02T10:37:15;11.40;99.90
40151;DHT22;25866;52.420;10.640;2024-03-02T10:39:42;11.50;99.90
40151;DHT22;25866;52.420;10.640;2024-03-02T10:42:12;11.50;99.90
40151;DHT22;25866;52.420;10.640;2024-03-02T10:44:39;11.60;99.90
40151;DHT22;25866;52.420;10.640;2024-03-02T10:47:06;11.60;99.90
40151;DHT22;25866;52.420;10.640;2024-03-02T10:49:33;11.70;99.90
40151;DHT22;25866;52.420;10.640;2024-03-02T10:52:00;11.80;99.90
40151;DHT22;25866;52.420;10.640;2024-03-02T10:54:26;11.90;99.90
40151;DHT22;25866;52.420;10.640;2024-03-02T10:56:58;11.90;99.90
40151;DHT22;25866;52.420;10.640;2024-03-02T10:59:34;12.00;99.90
40151;DHT22;25866;52.420;10.640;2024-03-02T11:02:11;12.00;99.90
40151;DHT22;25866;52.420;10.640;2024-03-02T11:04:38;12.20;99.90
40151;DHT22;25866;52.420;10.640;2024-03-02T11:07:10;12.20;99.90
40151;DHT22;25866;52.420;10.640;2024-03-02T11:09:52;12.40;99.90
40151;DHT22;25866;52.420;10.640;2024-03-02T11:12:29;12.60;99.90
40151;DHT22;25866;52.420;10.640;2024-03-02T11:15:00;12.80;99.90
40151;DHT22;25866;52.420;10.640;2024-03-02T11:17:26;13.10;99.90
40151;DHT22;25866;52.420;10.640;2024-03-02T11:19:52;13.30;99.90
40151;DHT22;25866;52.420;10.640;2024-03-02T11:22:20;13.40;99.90
40151;DHT22;25866;52.420;10.640;2024-03-02T11:24:51;13.30;99.90
40151;DHT22;25866;52.420;10.640;2024-03-02T11:33:01;13.30;99.90
40151;DHT22;25866;52.420;10.640;2024-03-02T11:35:32;13.20;99.90
40151;DHT22;25866;52.420;10.640;2024-03-02T11:38:01;13.10;99.90
40151;DHT22;25866;52.420;10.640;2024-03-02T11:40:29;13.20;99.90
40151;DHT22;25866;52.420;10.640;2024-03-02T11:42:56;13.30;99.90
40151;DHT22;25866;52.420;10.640;2024-03-02T11:45:26;13.10;99.90
40151;DHT22;25866;52.420;10.640;2024-03-02T11:47:54;13.10;99.90
40151;DHT22;25866;52.420;10.640;2024-03-02T11:50:30;13.00;99.90
40151;DHT22;25866;52.420;10.640;2024-03-02T11:52:58;13.00;99.90
40151;DHT22;25866;52.420;10.640;2024-03-02T11:55:25;13.00;99.90
40151;DHT22;25866;52.420;10.640;2024-03-02T11:57:53;13.00;99.90
40151;DHT22;25866;52.420;10.640;2024-03-02T12:00:19;13.00;99.90
40151;DHT22;25866;52.420;10.640;2024-03-02T12:03:00;13.00;99.90
40151;DHT22;25866;52.420;10.640;2024-03-02T12:05:27;13.00;99.90
40151;DHT22;25866;52.420;10.640;2024-03-02T12:10:23;13.10;99.90
40151;DHT22;25866;52.420;10.640;2024-03-02T12:12:56;13.10;99.90
40151;DHT22;25866;52.420;10.640;2024-03-02T12:15:26;13.10;99.90
40151;DHT22;25866;52.420;10.640;2024-03-02T12:17:56;13.10;99.90
40151;DHT22;25866;52.420;10.640;2024-03-02T12:20:23;13.10;99.90
40151;DHT22;25866;52.420;10.640;2024-03-02T12:22:54;13.20;99.90
40151;DHT22;25866;52.420;10.640;2024-03-02T12:25:20;13.20;99.90
40151;DHT22;25866;52.420;10.640;2024-03-02T12:27:51;13.20;99.90
40151;DHT22;25866;52.420;10.640;2024-03-02T12:30:18;13.20;99.90
40151;DHT22;25866;52.420;10.640;2024-03-02T12:32:46;13.30;99.90
40151;DHT22;25866;52.420;10.640;2024-03-02T12:35:13;13.30;99.90
40151;DHT22;25866;52.420;10.640;2024-03-02T12:37:45;13.30;99.90
40151;DHT22;25866;52.420;10.640;2024-03-02T12:40:13;13.40;99.90
40151;DHT22;25866;52.420;10.640;2024-03-02T12:42:40;13.40;99.90
40151;DHT22;25866;52.420;10.640;2024-03-02T12:45:08;13.40;99.90
40151;DHT22;25866;52.420;10.640;2024-03-02T12:47:34;13.50;99.90
40151;DHT22;25866;52.420;10.640;2024-03-02T12:50:01;13.50;99.90
40151;DHT22;25866;52.420;10.640;2024-03-02T12:52:27;13.60;99.90
40151;DHT22;25866;52.420;10.640;2024-03-02T12:54:53;13.60;99.90
40151;DHT22;25866;52.420;10.640;2024-03-02T12:57:25;13.70;99.90
40151;DHT22;25866;52.420;10.640;2024-03-02T12:59:56;13.70;99.90
40151;DHT22;25866;52.420;10.640;2024-03-02T13:02:22;13.90;99.90
40151;DHT22;25866;52.420;10.640;2024-03-02T13:04:55;14.00;99.90
40151;DHT22;25866;52.420;10.640;2024-03-02T13:07:22;14.10;99.90
40151;DHT22;25866;52.420;10.640;2024-03-02T13:09:50;14.30;99.90
40151;DHT22;25866;52.420;10.640;2024-03-02T13:12:21;14.40;99.90
40151;DHT22;25866;52.420;10.640;2024-03-02T13:14:52;14.60;99.90
40151;DHT22;25866;52.420;10.640;2024-03-02T13:17:18;14.70;99.90
40151;DHT22;25866;52.420;10.640;2024-03-02T13:19:55;14.80;99.90
40151;DHT22;25866;52.420;10.640;2024-03-02T13:22:22;15.00;99.90
40151;DHT22;25866;52.420;10.640;2024-03-02T13:24:49;15.20;99.90
40151;DHT22;25866;52.420;10.640;2024-03-02T13:27:14;15.30;99.90
40151;DHT22;25866;52.420;10.640;2024-03-02T13:29:42;15.40;99.90
40151;DHT22;25866;52.420;10.640;2024-03-02T13:32:07;15.40;99.90
40151;DHT22;25866;52.420;10.640;2024-03-02T13:34:35;15.40;99.90
40151;DHT22;25866;52.420;10.640;2024-03-02T13:37:01;15.20;99.90
40151;DHT22;25866;52.420;10.640;2024-03-02T13:39:27;15.10;99.90
40151;DHT22;25866;52.420;10.640;2024-03-02T13:41:56;15.00;99.90
40151;DHT22;25866;52.420;10.640;2024-03-02T13:44:29;14.90;99.90
40151;DHT22;25866;52.420;10.640;2024-03-02T13:46:55;14.90;99.90
40151;DHT22;25866;52.420;10.640;2024-03-02T13:49:20;14.80;99.90
40151;DHT22;25866;52.420;10.640;2024-03-02T13:51:46;14.70;99.90
40151;DHT22;25866;52.420;10.640;2024-03-02T13:54:12;14.60;99.90
40151;DHT22;25866;52.420;10.640;2024-03-02T13:56:38;14.50;99.90
40151;DHT22;25866;52.420;10.640;2024-03-02T13:59:05;14.30;99.90
40151;DHT22;25866;52.420;10.640;2024-03-02T14:01:31;14.30;99.90
40151;DHT22;25866;52.420;10.640;2024-03-02T14:03:58;14.30;99.90
40151;DHT22;25866;52.420;10.640;2024-03-02T14:06:24;14.20;99.90
40151;DHT22;25866;52.420;10.640;2024-03-02T14:08:53;14.30;99.90
40151;DHT22;25866;52.420;10.640;2024-03-02T14:11:19;14.20;99.90
40151;DHT22;25866;52.420;10.640;2024-03-02T14:13:45;14.30;99.90
40151;DHT22;25866;52.420;10.640;2024-03-02T14:16:15;14.30;99.90
40151;DHT22;25866;52.420;10.640;2024-03-02T14:18:41;14.30;99.90
40151;DHT22;25866;52.420;10.640;2024-03-02T14:21:07;14.40;99.90
40151;DHT22;25866;52.420;10.640;2024-03-02T14:23:33;14.30;99.90
40151;DHT22;25866;52.420;10.640;2024-03-02T14:25:59;14.50;99.90
40151;DHT22;25866;52.420;10.640;2024-03-02T14:28:25;14.60;99.90
40151;DHT22;25866;52.420;10.640;2024-03-02T14:30:51;14.70;99.90
40151;DHT22;25866;52.420;10.640;2024-03-02T14:33:17;14.90;99.90
40151;DHT22;25866;52.420;10.640;2024-03-02T14:35:44;14.90;99.90
40151;DHT22;25866;52.420;10.640;2024-03-02T14:38:11;15.00;99.90
40151;DHT22;25866;52.420;10.640;2024-03-02T14:40:37;14.90;99.90
40151;DHT22;25866;52.420;10.640;2024-03-02T14:43:02;14.90;99.90
40151;DHT22;25866;52.420;10.640;2024-03-02T14:45:29;14.90;99.90
40151;DHT22;25866;52.420;10.640;2024-03-02T14:47:55;14.80;99.90
40151;DHT22;25866;52.420;10.640;2024-03-02T14:50:21;14.80;99.90
40151;DHT22;25866;52.420;10.640;2024-03-02T14:52:47;14.70;99.90
40151;DHT22;25866;52.420;10.640;2024-03-02T14:55:14;14.70;99.90
40151;DHT22;25866;52.420;10.640;2024-03-02T14:57:40;14.60;99.90
40151;DHT22;25866;52.420;10.640;2024-03-02T15:00:07;14.50;99.90
40151;DHT22;25866;52.420;10.640;2024-03-02T15:02:33;14.50;99.90
40151;DHT22;25866;52.420;10.640;2024-03-02T15:05:00;14.50;99.90
40151;DHT22;25866;52.420;10.640;2024-03-02T15:07:25;14.40;99.90
40151;DHT22;25866;52.420;10.640;2024-03-02T15:09:51;14.30;99.90
40151;DHT22;25866;52.420;10.640;2024-03-02T15:12:17;14.20;99.90
40151;DHT22;25866;52.420;10.640;2024-03-02T15:14:43;14.10;99.90
40151;DHT22;25866;52.420;10.640;2024-03-02T15:17:16;14.10;99.90
40151;DHT22;25866;52.420;10.640;2024-03-02T15:19:45;14.00;99.90
40151;DHT22;25866;52.420;10.640;2024-03-02T15:22:12;14.00;99.90
40151;DHT22;25866;52.420;10.640;2024-03-02T15:24:38;13.90;99.90
40151;DHT22;25866;52.420;10.640;2024-03-02T15:27:05;13.90;99.90
40151;DHT22;25866;52.420;10.640;2024-03-02T15:29:32;13.80;99.90
40151;DHT22;25866;52.420;10.640;2024-03-02T15:31:58;13.70;99.90
40151;DHT22;25866;52.420;10.640;2024-03-02T15:34:24;13.70;99.90
40151;DHT22;25866;52.420;10.640;2024-03-02T15:36:50;13.60;99.90